sensor_id;sensor_type;location;lat;lon;timestamp;pressure;altitude;pressure_sealevel;temperature;humidity
76592;BME280;65481;47.600;19.682;2023-05-10T00:02:23;100549.28;;;10.79;66.35
76592;BME280;65481;47.600;19.682;2023-05-10T00:07:24;100546.41;;;10.81;66.79
76592;BME280;65481;47.600;19.682;2023-05-10T00:12:25;100536.78;;;10.86;66.71
76592;BME280;65481;47.600;19.682;2023-05-10T00:17:25;100534.53;;;10.90;66.63
76592;BME280;65481;47.600;19.682;2023-05-10T00:22:26;100542.28;;;10.85;67.11
76592;BME280;65481;47.600;19.682;2023-05-10T00:27:26;100537.53;;;10.75;67.39
76592;BME280;65481;47.600;19.682;2023-05-10T00:32:27;100542.59;;;10.77;67.37
76592;BME280;65481;47.600;19.682;2023-05-10T00:37:27;100527.47;;;10.84;67.15
76592;BME280;65481;47.600;19.682;2023-05-10T00:42:28;100534.28;;;10.91;66.97
76592;BME280;65481;47.600;19.682;2023-05-10T00:47:28;100522.84;;;10.98;66.76
76592;BME280;65481;47.600;19.682;2023-05-10T00:52:29;100526.50;;;10.97;66.38
76592;BME280;65481;47.600;19.682;2023-05-10T00:57:30;100526.00;;;10.88;66.63
76592;BME280;65481;47.600;19.682;2023-05-10T01:02:31;100522.88;;;10.79;66.65
76592;BME280;65481;47.600;19.682;2023-05-10T01:07:31;100523.31;;;10.76;66.63
76592;BME280;65481;47.600;19.682;2023-05-10T01:12:37;100522.13;;;10.72;66.69
76592;BME280;65481;47.600;19.682;2023-05-10T01:17:40;100524.56;;;10.73;66.48
76592;BME280;65481;47.600;19.682;2023-05-10T01:22:58;100535.06;;;10.62;66.93
76592;BME280;65481;47.600;19.682;2023-05-10T01:28:31;100528.59;;;10.57;67.03
76592;BME280;65481;47.600;19.682;2023-05-10T01:33:59;100531.16;;;10.45;66.86
76592;BME280;65481;47.600;19.682;2023-05-10T01:44:32;100525.63;;;10.28;67.51
76592;BME280;65481;47.600;19.682;2023-05-10T01:49:47;100527.25;;;10.29;67.36
76592;BME280;65481;47.600;19.682;2023-05-10T01:54:55;100512.09;;;10.43;66.78
76592;BME280;65481;47.600;19.682;2023-05-10T01:59:56;100518.19;;;10.44;67.02
76592;BME280;65481;47.600;19.682;2023-05-10T02:04:58;100511.00;;;10.51;67.13
76592;BME280;65481;47.600;19.682;2023-05-10T02:10:00;100504.41;;;10.60;66.73
76592;BME280;65481;47.600;19.682;2023-05-10T02:15:04;100504.66;;;10.59;67.02
76592;BME280;65481;47.600;19.682;2023-05-10T02:20:06;100500.31;;;10.65;67.12
76592;BME280;65481;47.600;19.682;2023-05-10T02:25:08;100494.81;;;10.66;68.41
76592;BME280;65481;47.600;19.682;2023-05-10T02:30:10;100503.97;;;10.45;72.09
76592;BME280;65481;47.600;19.682;2023-05-10T02:35:11;100494.69;;;10.36;76.83
76592;BME280;65481;47.600;19.682;2023-05-10T02:40:13;100506.34;;;10.28;81.92
76592;BME280;65481;47.600;19.682;2023-05-10T02:45:20;100510.44;;;10.24;86.65
76592;BME280;65481;47.600;19.682;2023-05-10T02:50:22;100508.63;;;10.24;89.87
76592;BME280;65481;47.600;19.682;2023-05-10T02:55:25;100498.78;;;10.38;92.32
76592;BME280;65481;47.600;19.682;2023-05-10T03:00:27;100496.06;;;10.45;94.92
76592;BME280;65481;47.600;19.682;2023-05-10T03:05:48;100490.56;;;10.47;99.56
76592;BME280;65481;47.600;19.682;2023-05-10T03:16:27;100487.78;;;10.41;100.00
76592;BME280;65481;47.600;19.682;2023-05-10T03:21:29;100489.78;;;10.46;100.00
76592;BME280;65481;47.600;19.682;2023-05-10T03:26:31;100498.97;;;10.55;100.00
76592;BME280;65481;47.600;19.682;2023-05-10T03:31:33;100495.13;;;10.58;100.00
76592;BME280;65481;47.600;19.682;2023-05-10T03:36:34;100492.84;;;10.62;100.00
76592;BME280;65481;47.600;19.682;2023-05-10T03:41:34;100493.69;;;10.74;100.00
76592;BME280;65481;47.600;19.682;2023-05-10T03:46:35;100495.16;;;10.70;100.00
76592;BME280;65481;47.600;19.682;2023-05-10T03:51:35;100496.78;;;10.71;100.00
76592;BME280;65481;47.600;19.682;2023-05-10T03:56:36;100496.25;;;10.62;100.00
76592;BME280;65481;47.600;19.682;2023-05-10T04:01:38;100495.63;;;10.67;100.00
76592;BME280;65481;47.600;19.682;2023-05-10T04:06:38;100495.88;;;10.77;100.00
76592;BME280;65481;47.600;19.682;2023-05-10T04:11:39;100499.78;;;10.74;100.00
76592;BME280;65481;47.600;19.682;2023-05-10T04:16:39;100500.38;;;10.77;100.00
76592;BME280;65481;47.600;19.682;2023-05-10T04:21:40;100501.53;;;10.81;100.00
76592;BME280;65481;47.600;19.682;2023-05-10T04:26:40;100505.09;;;10.86;100.00
76592;BME280;65481;47.600;19.682;2023-05-10T04:31:41;100505.03;;;10.93;100.00
76592;BME280;65481;47.600;19.682;2023-05-10T04:36:41;100504.03;;;11.06;100.00
76592;BME280;65481;47.600;19.682;2023-05-10T04:41:42;100502.25;;;11.18;100.00
76592;BME280;65481;47.600;19.682;2023-05-10T04:46:42;100505.00;;;11.24;97.05
76592;BME280;65481;47.600;19.682;2023-05-10T04:51:43;100496.44;;;11.28;95.38
76592;BME280;65481;47.600;19.682;2023-05-10T04:56:43;100495.13;;;11.19;93.70
76592;BME280;65481;47.600;19.682;2023-05-10T05:01:44;100508.72;;;11.23;91.87
76592;BME280;65481;47.600;19.682;2023-05-10T05:06:44;100499.22;;;11.45;88.85
76592;BME280;65481;47.600;19.682;2023-05-10T05:11:45;100508.13;;;11.87;84.57
76592;BME280;65481;47.600;19.682;2023-05-10T05:16:45;100508.50;;;12.02;82.25
76592;BME280;65481;47.600;19.682;2023-05-10T05:21:46;100509.09;;;12.16;80.22
76592;BME280;65481;47.600;19.682;2023-05-10T05:26:46;100506.97;;;11.94;80.18
76592;BME280;65481;47.600;19.682;2023-05-10T05:31:47;100513.91;;;12.19;80.52
76592;BME280;65481;47.600;19.682;2023-05-10T05:36:48;100517.22;;;12.26;80.48
76592;BME280;65481;47.600;19.682;2023-05-10T05:41:48;100522.25;;;12.52;80.72
76592;BME280;65481;47.600;19.682;2023-05-10T05:46:49;100524.31;;;13.02;79.77
76592;BME280;65481;47.600;19.682;2023-05-10T05:51:50;100531.41;;;13.14;79.98
76592;BME280;65481;47.600;19.682;2023-05-10T05:56:50;100535.59;;;13.27;79.84
76592;BME280;65481;47.600;19.682;2023-05-10T06:01:51;100538.69;;;14.21;74.76
76592;BME280;65481;47.600;19.682;2023-05-10T06:06:52;100534.81;;;15.18;68.19
76592;BME280;65481;47.600;19.682;2023-05-10T06:11:52;100540.53;;;15.04;67.75
76592;BME280;65481;47.600;19.682;2023-05-10T06:16:53;100536.72;;;15.22;65.10
76592;BME280;65481;47.600;19.682;2023-05-10T06:21:53;100530.88;;;16.28;59.21
76592;BME280;65481;47.600;19.682;2023-05-10T06:26:54;100536.28;;;17.13;55.56
76592;BME280;65481;47.600;19.682;2023-05-10T06:31:54;100533.34;;;17.81;52.76
76592;BME280;65481;47.600;19.682;2023-05-10T06:36:55;100528.88;;;18.63;50.45
76592;BME280;65481;47.600;19.682;2023-05-10T06:41:55;100536.94;;;19.08;48.19
76592;BME280;65481;47.600;19.682;2023-05-10T06:46:56;100529.91;;;19.57;45.83
76592;BME280;65481;47.600;19.682;2023-05-10T06:51:56;100535.41;;;19.71;45.14
76592;BME280;65481;47.600;19.682;2023-05-10T06:56:57;100530.16;;;20.39;43.28
76592;BME280;65481;47.600;19.682;2023-05-10T07:01:58;100546.53;;;20.37;42.75
76592;BME280;65481;47.600;19.682;2023-05-10T07:06:58;100542.31;;;20.80;42.27
76592;BME280;65481;47.600;19.682;2023-05-10T07:11:58;100538.94;;;20.69;41.59
76592;BME280;65481;47.600;19.682;2023-05-10T07:16:59;100544.19;;;20.55;41.78
76592;BME280;65481;47.600;19.682;2023-05-10T07:21:59;100551.75;;;20.72;41.34
76592;BME280;65481;47.600;19.682;2023-05-10T07:27:00;100547.66;;;21.70;40.79
76592;BME280;65481;47.600;19.682;2023-05-10T07:32:00;100553.41;;;22.11;38.64
76592;BME280;65481;47.600;19.682;2023-05-10T07:37:01;100555.16;;;22.01;38.45
76592;BME280;65481;47.600;19.682;2023-05-10T07:42:02;100547.28;;;19.94;41.94
76592;BME280;65481;47.600;19.682;2023-05-10T07:47:03;100541.88;;;20.48;42.08
76592;BME280;65481;47.600;19.682;2023-05-10T07:52:03;100540.38;;;20.37;42.13
76592;BME280;65481;47.600;19.682;2023-05-10T07:57:04;100548.69;;;20.60;41.21
76592;BME280;65481;47.600;19.682;2023-05-10T08:02:05;100548.13;;;19.55;43.56
76592;BME280;65481;47.600;19.682;2023-05-10T08:07:06;100536.50;;;18.96;44.86
76592;BME280;65481;47.600;19.682;2023-05-10T08:12:07;100547.44;;;20.95;41.29
76592;BME280;65481;47.600;19.682;2023-05-10T08:17:07;100540.59;;;21.22;40.81
76592;BME280;65481;47.600;19.682;2023-05-10T08:22:08;100541.97;;;19.84;42.90
76592;BME280;65481;47.600;19.682;2023-05-10T08:27:08;100533.88;;;21.25;41.28
76592;BME280;65481;47.600;19.682;2023-05-10T08:32:09;100534.91;;;20.47;42.37
76592;BME280;65481;47.600;19.682;2023-05-10T08:37:09;100532.06;;;20.82;41.88
76592;BME280;65481;47.600;19.682;2023-05-10T08:42:16;100523.88;;;21.11;40.92
76592;BME280;65481;47.600;19.682;2023-05-10T08:47:20;100522.56;;;22.50;38.65
76592;BME280;65481;47.600;19.682;2023-05-10T08:52:21;100530.31;;;22.09;38.19
76592;BME280;65481;47.600;19.682;2023-05-10T08:57:23;100521.22;;;21.77;39.34
76592;BME280;65481;47.600;19.682;2023-05-10T09:02:24;100517.91;;;22.78;37.42
76592;BME280;65481;47.600;19.682;2023-05-10T09:07:25;100525.16;;;23.14;36.15
76592;BME280;65481;47.600;19.682;2023-05-10T09:12:27;100510.13;;;23.68;35.86
76592;BME280;65481;47.600;19.682;2023-05-10T09:17:28;100518.75;;;21.95;37.57
76592;BME280;65481;47.600;19.682;2023-05-10T09:22:30;100511.34;;;21.40;39.02
76592;BME280;65481;47.600;19.682;2023-05-10T09:27:31;100514.38;;;21.85;38.12
76592;BME280;65481;47.600;19.682;2023-05-10T09:32:42;100512.38;;;22.33;37.46
76592;BME280;65481;47.600;19.682;2023-05-10T09:37:45;100506.00;;;22.93;35.71
76592;BME280;65481;47.600;19.682;2023-05-10T09:42:56;100513.00;;;24.03;34.21
76592;BME280;65481;47.600;19.682;2023-05-10T09:47:58;100497.06;;;22.33;35.32
76592;BME280;65481;47.600;19.682;2023-05-10T09:53:01;100488.69;;;22.35;36.03
76592;BME280;65481;47.600;19.682;2023-05-10T09:58:03;100492.50;;;22.06;36.31
76592;BME280;65481;47.600;19.682;2023-05-10T10:03:05;100485.78;;;22.96;34.68
76592;BME280;65481;47.600;19.682;2023-05-10T10:08:06;100478.94;;;23.75;33.63
76592;BME280;65481;47.600;19.682;2023-05-10T10:13:07;100473.97;;;22.83;35.00
76592;BME280;65481;47.600;19.682;2023-05-10T10:18:12;100466.59;;;22.38;35.14
76592;BME280;65481;47.600;19.682;2023-05-10T10:23:13;100467.19;;;21.65;36.84
76592;BME280;65481;47.600;19.682;2023-05-10T10:28:40;100456.75;;;22.19;36.03
76592;BME280;65481;47.600;19.682;2023-05-10T10:33:56;100456.41;;;23.63;34.37
76592;BME280;65481;47.600;19.682;2023-05-10T10:39:01;100452.00;;;24.25;33.88
76592;BME280;65481;47.600;19.682;2023-05-10T10:49:32;100448.91;;;21.81;36.60
76592;BME280;65481;47.600;19.682;2023-05-10T10:54:34;100442.16;;;21.70;36.17
76592;BME280;65481;47.600;19.682;2023-05-10T10:59:35;100436.81;;;21.03;36.90
76592;BME280;65481;47.600;19.682;2023-05-10T11:04:43;100435.81;;;20.99;37.75
76592;BME280;65481;47.600;19.682;2023-05-10T11:09:49;100432.13;;;20.95;38.69
76592;BME280;65481;47.600;19.682;2023-05-10T11:14:50;100438.78;;;20.60;39.03
76592;BME280;65481;47.600;19.682;2023-05-10T11:20:08;100425.81;;;20.28;38.41
76592;BME280;65481;47.600;19.682;2023-05-10T11:25:12;100426.91;;;20.27;39.67
76592;BME280;65481;47.600;19.682;2023-05-10T11:30:14;100423.78;;;20.58;39.30
76592;BME280;65481;47.600;19.682;2023-05-10T11:35:14;100415.97;;;20.43;39.61
76592;BME280;65481;47.600;19.682;2023-05-10T11:40:15;100430.75;;;20.60;40.23
76592;BME280;65481;47.600;19.682;2023-05-10T11:45:16;100416.41;;;20.50;39.66
76592;BME280;65481;47.600;19.682;2023-05-10T11:50:17;100408.38;;;20.88;39.33
76592;BME280;65481;47.600;19.682;2023-05-10T11:55:18;100401.84;;;21.09;39.41
76592;BME280;65481;47.600;19.682;2023-05-10T12:00:19;100388.41;;;21.98;38.07
76592;BME280;65481;47.600;19.682;2023-05-10T12:05:20;100403.22;;;21.39;37.73
76592;BME280;65481;47.600;19.682;2023-05-10T12:10:25;100391.44;;;21.07;38.37
76592;BME280;65481;47.600;19.682;2023-05-10T12:15:27;100396.53;;;21.37;38.43
76592;BME280;65481;47.600;19.682;2023-05-10T12:20:28;100392.69;;;22.13;36.65
76592;BME280;65481;47.600;19.682;2023-05-10T12:25:36;100388.75;;;22.19;36.43
76592;BME280;65481;47.600;19.682;2023-05-10T12:30:38;100384.28;;;21.77;36.11
76592;BME280;65481;47.600;19.682;2023-05-10T12:35:50;100383.13;;;21.23;36.80
76592;BME280;65481;47.600;19.682;2023-05-10T12:40:50;100385.44;;;20.96;36.30
76592;BME280;65481;47.600;19.682;2023-05-10T12:45:51;100374.84;;;21.05;35.13
76592;BME280;65481;47.600;19.682;2023-05-10T12:50:51;100366.66;;;20.96;35.59
76592;BME280;65481;47.600;19.682;2023-05-10T12:55:52;100361.09;;;20.73;37.10
76592;BME280;65481;47.600;19.682;2023-05-10T13:00:53;100359.59;;;21.00;36.67
76592;BME280;65481;47.600;19.682;2023-05-10T13:05:54;100354.56;;;20.99;36.29
76592;BME280;65481;47.600;19.682;2023-05-10T13:10:54;100344.25;;;21.34;36.39
76592;BME280;65481;47.600;19.682;2023-05-10T13:15:55;100349.72;;;21.29;36.64
76592;BME280;65481;47.600;19.682;2023-05-10T13:20:55;100353.38;;;20.72;37.49
76592;BME280;65481;47.600;19.682;2023-05-10T13:25:56;100345.88;;;20.17;37.69
76592;BME280;65481;47.600;19.682;2023-05-10T13:30:56;100338.41;;;19.94;38.44
76592;BME280;65481;47.600;19.682;2023-05-10T13:35:57;100337.06;;;20.16;38.41
76592;BME280;65481;47.600;19.682;2023-05-10T13:40:57;100332.31;;;20.08;38.36
76592;BME280;65481;47.600;19.682;2023-05-10T13:45:58;100326.41;;;20.11;38.13
76592;BME280;65481;47.600;19.682;2023-05-10T13:50:58;100317.13;;;20.22;37.88
76592;BME280;65481;47.600;19.682;2023-05-10T13:55:59;100319.34;;;20.34;37.75
76592;BME280;65481;47.600;19.682;2023-05-10T14:00:59;100312.97;;;20.30;37.67
76592;BME280;65481;47.600;19.682;2023-05-10T14:06:00;100322.53;;;20.36;37.56
76592;BME280;65481;47.600;19.682;2023-05-10T14:11:01;100309.22;;;20.31;37.51
76592;BME280;65481;47.600;19.682;2023-05-10T14:16:01;100309.00;;;20.27;37.22
76592;BME280;65481;47.600;19.682;2023-05-10T14:21:03;100308.16;;;20.65;37.40
76592;BME280;65481;47.600;19.682;2023-05-10T14:26:03;100308.63;;;20.53;37.34
76592;BME280;65481;47.600;19.682;2023-05-10T14:31:04;100305.31;;;20.23;37.62
76592;BME280;65481;47.600;19.682;2023-05-10T14:36:06;100288.66;;;20.26;37.67
76592;BME280;65481;47.600;19.682;2023-05-10T14:41:07;100290.47;;;20.64;37.53
76592;BME280;65481;47.600;19.682;2023-05-10T14:46:07;100295.81;;;20.83;37.94
76592;BME280;65481;47.600;19.682;2023-05-10T14:51:08;100283.41;;;21.01;39.19
76592;BME280;65481;47.600;19.682;2023-05-10T14:56:09;100292.28;;;20.69;38.67
76592;BME280;65481;47.600;19.682;2023-05-10T15:01:10;100289.88;;;20.53;38.81
76592;BME280;65481;47.600;19.682;2023-05-10T15:06:14;100283.34;;;20.73;38.38
76592;BME280;65481;47.600;19.682;2023-05-10T15:11:16;100284.59;;;21.09;37.79
76592;BME280;65481;47.600;19.682;2023-05-10T15:16:16;100278.44;;;20.95;38.08
76592;BME280;65481;47.600;19.682;2023-05-10T15:21:17;100273.78;;;20.86;38.20
76592;BME280;65481;47.600;19.682;2023-05-10T15:26:17;100270.84;;;20.69;37.97
76592;BME280;65481;47.600;19.682;2023-05-10T15:31:18;100282.47;;;20.45;37.96
76592;BME280;65481;47.600;19.682;2023-05-10T15:36:19;100276.69;;;20.38;37.56
76592;BME280;65481;47.600;19.682;2023-05-10T15:41:19;100279.03;;;20.25;36.72
76592;BME280;65481;47.600;19.682;2023-05-10T15:46:21;100265.06;;;20.28;36.11
76592;BME280;65481;47.600;19.682;2023-05-10T15:51:21;100266.16;;;20.27;35.73
76592;BME280;65481;47.600;19.682;2023-05-10T15:56:22;100268.88;;;20.08;35.16
76592;BME280;65481;47.600;19.682;2023-05-10T16:01:22;100266.72;;;19.67;35.23
76592;BME280;65481;47.600;19.682;2023-05-10T16:06:23;100268.06;;;19.64;35.45
76592;BME280;65481;47.600;19.682;2023-05-10T16:11:23;100266.41;;;19.68;35.42
76592;BME280;65481;47.600;19.682;2023-05-10T16:16:24;100268.84;;;19.46;36.26
76592;BME280;65481;47.600;19.682;2023-05-10T16:21:24;100269.72;;;19.17;37.06
76592;BME280;65481;47.600;19.682;2023-05-10T16:26:25;100255.56;;;19.16;37.64
76592;BME280;65481;47.600;19.682;2023-05-10T16:31:26;100266.00;;;19.13;37.77
76592;BME280;65481;47.600;19.682;2023-05-10T16:36:27;100272.44;;;19.12;37.92
76592;BME280;65481;47.600;19.682;2023-05-10T16:41:32;100268.34;;;18.95;38.13
76592;BME280;65481;47.600;19.682;2023-05-10T16:46:32;100268.41;;;18.85;38.46
76592;BME280;65481;47.600;19.682;2023-05-10T16:51:33;100272.19;;;18.79;38.88
76592;BME280;65481;47.600;19.682;2023-05-10T16:56:33;100279.16;;;18.80;39.37
76592;BME280;65481;47.600;19.682;2023-05-10T17:01:34;100278.72;;;18.67;40.02
76592;BME280;65481;47.600;19.682;2023-05-10T17:06:35;100279.31;;;18.59;40.40
76592;BME280;65481;47.600;19.682;2023-05-10T17:11:36;100283.34;;;18.56;40.78
76592;BME280;65481;47.600;19.682;2023-05-10T17:16:36;100282.66;;;18.45;41.08
76592;BME280;65481;47.600;19.682;2023-05-10T17:21:37;100290.16;;;18.38;41.35
76592;BME280;65481;47.600;19.682;2023-05-10T17:26:37;100296.66;;;18.27;41.73
76592;BME280;65481;47.600;19.682;2023-05-10T17:31:38;100288.16;;;18.20;41.94
76592;BME280;65481;47.600;19.682;2023-05-10T17:36:39;100287.22;;;18.00;42.53
76592;BME280;65481;47.600;19.682;2023-05-10T17:41:40;100286.75;;;17.82;42.99
76592;BME280;65481;47.600;19.682;2023-05-10T17:46:40;100297.50;;;17.67;43.32
76592;BME280;65481;47.600;19.682;2023-05-10T17:51:41;100297.56;;;17.51;43.46
76592;BME280;65481;47.600;19.682;2023-05-10T17:56:43;100300.25;;;17.41;43.63
76592;BME280;65481;47.600;19.682;2023-05-10T18:01:43;100301.09;;;17.31;43.94
76592;BME280;65481;47.600;19.682;2023-05-10T18:06:44;100300.84;;;17.17;43.92
76592;BME280;65481;47.600;19.682;2023-05-10T18:11:44;100300.59;;;17.14;44.01
76592;BME280;65481;47.600;19.682;2023-05-10T18:16:45;100307.53;;;17.09;44.19
76592;BME280;65481;47.600;19.682;2023-05-10T18:21:45;100315.53;;;16.99;43.96
76592;BME280;65481;47.600;19.682;2023-05-10T18:26:46;100318.19;;;16.89;44.06
76592;BME280;65481;47.600;19.682;2023-05-10T18:31:47;100320.88;;;16.78;44.17
76592;BME280;65481;47.600;19.682;2023-05-10T18:36:48;100324.31;;;16.74;44.25
76592;BME280;65481;47.600;19.682;2023-05-10T18:41:48;100327.50;;;16.60;44.47
76592;BME280;65481;47.600;19.682;2023-05-10T18:46:49;100341.06;;;16.48;44.69
76592;BME280;65481;47.600;19.682;2023-05-10T18:51:52;100335.75;;;16.38;44.86
76592;BME280;65481;47.600;19.682;2023-05-10T18:56:53;100345.84;;;16.31;44.94
76592;BME280;65481;47.600;19.682;2023-05-10T19:01:54;100341.28;;;16.16;45.40
76592;BME280;65481;47.600;19.682;2023-05-10T19:06:57;100339.66;;;16.04;45.68
76592;BME280;65481;47.600;19.682;2023-05-10T19:11:59;100344.44;;;15.97;45.86
76592;BME280;65481;47.600;19.682;2023-05-10T19:17:00;100346.78;;;15.88;46.33
76592;BME280;65481;47.600;19.682;2023-05-10T19:22:00;100348.59;;;15.78;46.88
76592;BME280;65481;47.600;19.682;2023-05-10T19:27:01;100357.63;;;15.77;47.12
76592;BME280;65481;47.600;19.682;2023-05-10T19:32:02;100355.19;;;15.75;47.18
76592;BME280;65481;47.600;19.682;2023-05-10T19:37:02;100352.03;;;15.78;47.25
76592;BME280;65481;47.600;19.682;2023-05-10T19:42:03;100351.72;;;15.69;47.82
76592;BME280;65481;47.600;19.682;2023-05-10T19:47:04;100356.50;;;15.67;48.17
76592;BME280;65481;47.600;19.682;2023-05-10T19:52:05;100352.78;;;15.68;48.18
76592;BME280;65481;47.600;19.682;2023-05-10T19:57:07;100349.34;;;15.68;48.55
76592;BME280;65481;47.600;19.682;2023-05-10T20:02:07;100346.38;;;15.64;48.74
76592;BME280;65481;47.600;19.682;2023-05-10T20:07:08;100353.75;;;15.52;49.33
76592;BME280;65481;47.600;19.682;2023-05-10T20:12:09;100361.41;;;15.43;49.86
76592;BME280;65481;47.600;19.682;2023-05-10T20:17:09;100345.13;;;15.29;50.26
76592;BME280;65481;47.600;19.682;2023-05-10T20:22:09;100350.59;;;15.17;50.46
76592;BME280;65481;47.600;19.682;2023-05-10T20:27:10;100352.41;;;15.06;50.83
76592;BME280;65481;47.600;19.682;2023-05-10T20:32:10;100342.59;;;15.07;51.00
76592;BME280;65481;47.600;19.682;2023-05-10T20:37:11;100354.72;;;14.97;50.93
76592;BME280;65481;47.600;19.682;2023-05-10T20:42:12;100351.53;;;14.95;50.94
76592;BME280;65481;47.600;19.682;2023-05-10T20:47:13;100348.03;;;14.90;50.74
76592;BME280;65481;47.600;19.682;2023-05-10T20:52:14;100347.41;;;14.77;51.17
76592;BME280;65481;47.600;19.682;2023-05-10T20:57:15;100339.63;;;14.71;50.59
76592;BME280;65481;47.600;19.682;2023-05-10T21:02:15;100345.13;;;14.64;50.51
76592;BME280;65481;47.600;19.682;2023-05-10T21:07:16;100340.06;;;14.62;50.28
76592;BME280;65481;47.600;19.682;2023-05-10T21:12:16;100339.69;;;14.48;50.36
76592;BME280;65481;47.600;19.682;2023-05-10T21:17:17;100339.88;;;14.42;50.55
76592;BME280;65481;47.600;19.682;2023-05-10T21:22:17;100340.63;;;14.37;50.61
76592;BME280;65481;47.600;19.682;2023-05-10T21:27:18;100340.53;;;14.27;50.70
76592;BME280;65481;47.600;19.682;2023-05-10T21:32:18;100344.41;;;14.19;50.65
76592;BME280;65481;47.600;19.682;2023-05-10T21:37:19;100346.03;;;14.20;50.46
76592;BME280;65481;47.600;19.682;2023-05-10T21:42:19;100349.72;;;14.19;50.24
76592;BME280;65481;47.600;19.682;2023-05-10T21:47:20;100345.97;;;14.15;50.27
76592;BME280;65481;47.600;19.682;2023-05-10T21:52:20;100349.94;;;14.12;49.99
76592;BME280;65481;47.600;19.682;2023-05-10T21:57:21;100348.25;;;14.06;50.07
76592;BME280;65481;47.600;19.682;2023-05-10T22:02:22;100350.13;;;14.05;49.98
76592;BME280;65481;47.600;19.682;2023-05-10T22:07:22;100350.84;;;14.01;49.94
76592;BME280;65481;47.600;19.682;2023-05-10T22:12:23;100345.16;;;13.92;49.74
76592;BME280;65481;47.600;19.682;2023-05-10T22:17:24;100354.16;;;13.91;49.55
76592;BME280;65481;47.600;19.682;2023-05-10T22:22:24;100346.78;;;13.93;49.28
76592;BME280;65481;47.600;19.682;2023-05-10T22:27:25;100344.88;;;13.88;49.03
76592;BME280;65481;47.600;19.682;2023-05-10T22:32:26;100344.88;;;13.88;48.97
76592;BME280;65481;47.600;19.682;2023-05-10T22:37:26;100353.88;;;13.87;48.57
76592;BME280;65481;47.600;19.682;2023-05-10T22:42:26;100350.91;;;13.84;48.37
76592;BME280;65481;47.600;19.682;2023-05-10T22:47:27;100353.09;;;13.87;48.05
76592;BME280;65481;47.600;19.682;2023-05-10T22:52:28;100372.44;;;13.87;48.37
76592;BME280;65481;47.600;19.682;2023-05-10T22:57:28;100390.19;;;13.30;51.33
76592;BME280;65481;47.600;19.682;2023-05-10T23:02:29;100389.56;;;13.40;50.31
76592;BME280;65481;47.600;19.682;2023-05-10T23:07:30;100384.16;;;13.52;49.36
76592;BME280;65481;47.600;19.682;2023-05-10T23:12:30;100392.69;;;13.54;49.36
76592;BME280;65481;47.600;19.682;2023-05-10T23:17:31;100378.94;;;13.57;49.22
76592;BME280;65481;47.600;19.682;2023-05-10T23:22:31;100382.94;;;13.60;49.18
76592;BME280;65481;47.600;19.682;2023-05-10T23:27:32;100378.22;;;13.62;48.86
76592;BME280;65481;47.600;19.682;2023-05-10T23:32:32;100365.03;;;13.67;48.65
76592;BME280;65481;47.600;19.682;2023-05-10T23:37:33;100364.28;;;13.72;48.81
76592;BME280;65481;47.600;19.682;2023-05-10T23:42:33;100362.41;;;13.72;49.01
76592;BME280;65481;47.600;19.682;2023-05-10T23:47:34;100368.47;;;13.68;49.29
76592;BME280;65481;47.600;19.682;2023-05-10T23:52:35;100366.75;;;13.56;49.38
76592;BME280;65481;47.600;19.682;2023-05-10T23:57:35;100378.56;;;13.48;49.78
